Time,TemperatureF,DewpointF,PressureIn,WindDirection,WindDirectionDegrees,WindSpeedMPH,WindSpeedGustMPH,Humidity,HourlyPrecipIn,Conditions,Clouds,dailyrainin,SoftwareType,DateUTC
2013-07-19 00:26:00,88.0,80.0,29.90,NW,315,3.0,4.0,78,0.00,,,0.00,TxWx,2013-07-19 04:26:00,
2013-07-19 00:27:00,88.0,80.0,29.90,North,0,3.0,3.0,78,0.00,,,0.00,TxWx,2013-07-19 04:27:00,
2013-07-19 00:30:00,88.0,80.0,29.90,NNW,337,3.0,3.0,77,0.00,,,0.00,TxWx,2013-07-19 04:30:00,
2013-07-19 00:35:00,89.0,80.0,29.90,WNW,292,1.0,2.0,76,0.00,,,0.00,TxWx,2013-07-19 04:35:00,
2013-07-19 00:38:00,80.0,76.0,29.94,NNW,337,1.0,2.0,89,0.00,,,0.00,TxWx,2013-07-19 04:38:00,
2013-07-19 00:39:00,89.0,80.0,29.90,WNW,292,5.0,5.0,75,0.00,,,0.00,TxWx,2013-07-19 04:39:00,
2013-07-19 00:44:00,89.0,80.0,29.90,NW,315,1.0,1.0,75,0.00,,,0.00,TxWx,2013-07-19 04:44:00,
2013-07-19 00:45:00,80.0,76.0,29.94,WNW,292,2.0,2.0,89,0.00,,,0.00,TxWx,2013-07-19 04:45:00,
2013-07-19 00:47:00,89.0,80.0,29.90,North,0,2.0,3.0,74,0.00,,,0.00,TxWx,2013-07-19 04:47:00,
2013-07-19 00:51:00,80.0,76.0,29.93,NNW,337,1.0,1.0,89,0.00,,,0.00,TxWx,2013-07-19 04:51:00,
2013-07-19 00:55:00,90.0,80.0,29.89,NNE,22,3.0,3.0,73,0.00,,,0.00,TxWx,2013-07-19 04:55:00,
2013-07-19 00:56:00,80.0,76.0,29.94,WNW,292,0.0,1.0,89,0.00,,,0.00,TxWx,2013-07-19 04:56:00,
2013-07-19 00:57:00,90.0,80.0,29.89,ENE,67,1.0,2.0,73,0.00,,,0.00,TxWx,2013-07-19 04:57:00,
2013-07-19 00:58:00,90.0,80.0,29.89,ENE,67,2.0,2.0,73,0.00,,,0.00,TxWx,2013-07-19 04:58:00,
2013-07-19 01:01:00,80.0,77.0,29.94,WNW,292,1.0,1.0,90,0.00,,,0.00,TxWx,2013-07-19 05:01:00,
2013-07-19 01:06:00,80.0,77.0,29.94,WSW,247,1.0,1.0,90,0.00,,,0.00,TxWx,2013-07-19 05:06:00,
2013-07-19 01:09:00,91.0,80.0,29.88,NNE,22,1.0,1.0,70,0.00,,,0.00,TxWx,2013-07-19 05:09:00,
2013-07-19 01:10:00,91.0,80.0,29.89,WNW,292,2.0,2.0,70,0.00,,,0.00,TxWx,2013-07-19 05:10:00,
2013-07-19 01:12:00,80.0,77.0,29.94,West,270,1.0,1.0,90,0.00,,,0.00,TxWx,2013-07-19 05:12:00,
2013-07-19 01:16:00,91.0,80.0,29.88,WNW,292,1.0,1.0,70,0.00,,,0.00,TxWx,2013-07-19 05:16:00,
2013-07-19 01:17:00,80.0,77.0,29.94,SW,225,1.0,1.0,90,0.00,,,0.00,TxWx,2013-07-19 05:17:00,
2013-07-19 01:22:00,80.0,77.0,29.94,WSW,247,1.0,2.0,90,0.00,,,0.00,TxWx,2013-07-19 05:22:00,
2013-07-19 01:27:00,80.0,77.0,29.94,WSW,247,1.0,2.0,90,0.00,,,0.00,TxWx,2013-07-19 05:27:00,
2013-07-19 01:32:00,80.0,77.0,29.94,WSW,247,1.0,1.0,90,0.00,,,0.00,TxWx,2013-07-19 05:32:00,
2013-07-19 01:37:00,80.0,77.0,29.94,East,90,1.0,1.0,90,0.00,,,0.00,TxWx,2013-07-19 05:37:00,
2013-07-19 01:42:00,80.0,77.0,29.94,NNE,22,2.0,2.0,90,0.00,,,0.00,TxWx,2013-07-19 05:42:00,
2013-07-19 01:48:00,80.0,77.0,29.94,NNE,22,2.0,2.0,91,0.00,,,0.00,TxWx,2013-07-19 05:48:00,
2013-07-19 01:53:00,79.0,76.0,29.94,West,270,1.0,1.0,91,0.00,,,0.00,TxWx,2013-07-19 05:53:00,
2013-07-19 01:58:00,79.0,76.0,29.94,NE,45,1.0,1.0,91,0.00,,,0.00,TxWx,2013-07-19 05:58:00,
2013-07-19 02:03:00,79.0,76.0,29.93,SE,135,0.0,1.0,91,0.00,,,0.00,TxWx,2013-07-19 06:03:00,
2013-07-19 02:08:00,79.0,76.0,29.93,SE,135,0.0,0.0,91,0.00,,,0.00,TxWx,2013-07-19 06:08:00,
2013-07-19 02:13:00,79.0,76.0,29.93,SSW,202,1.0,1.0,91,0.00,,,0.00,TxWx,2013-07-19 06:13:00,
2013-07-19 02:18:00,79.0,76.0,29.93,SW,225,0.0,1.0,91,0.00,,,0.00,TxWx,2013-07-19 06:18:00,
2013-07-19 02:24:00,79.0,76.0,29.93,NW,315,1.0,1.0,91,0.00,,,0.00,TxWx,2013-07-19 06:24:00,
2013-07-19 02:29:00,79.0,76.0,29.94,NNE,22,2.0,2.0,91,0.00,,,0.00,TxWx,2013-07-19 06:29:00,
2013-07-19 02:34:00,78.0,75.0,29.93,WSW,247,1.0,1.0,91,0.00,,,0.00,TxWx,2013-07-19 06:34:00,
2013-07-19 02:39:00,78.0,75.0,29.93,SE,135,1.0,1.0,92,0.00,,,0.00,TxWx,2013-07-19 06:39:00,
2013-07-19 02:45:00,79.0,76.0,29.93,SE,135,1.0,1.0,92,0.00,,,0.00,TxWx,2013-07-19 06:45:00,
2013-07-19 02:50:00,79.0,76.0,29.93,NW,315,1.0,1.0,92,0.00,,,0.00,TxWx,2013-07-19 06:50:00,
2013-07-19 02:55:00,79.0,76.0,29.93,NW,315,0.0,1.0,92,0.00,,,0.00,TxWx,2013-07-19 06:55:00,
2013-07-19 03:00:00,78.0,75.0,29.93,ENE,67,1.0,1.0,92,0.00,,,0.00,TxWx,2013-07-19 07:00:00,
2013-07-19 03:05:00,78.0,75.0,29.93,SSW,202,0.0,1.0,92,0.00,,,0.00,TxWx,2013-07-19 07:05:00,
2013-07-19 03:10:00,78.0,75.0,29.93,SSW,202,1.0,1.0,92,0.00,,,0.00,TxWx,2013-07-19 07:10:00,
2013-07-19 03:16:00,78.0,76.0,29.93,WNW,292,1.0,1.0,93,0.00,,,0.00,TxWx,2013-07-19 07:16:00,
2013-07-19 03:21:00,78.0,76.0,29.93,NNE,22,1.0,1.0,93,0.00,,,0.00,TxWx,2013-07-19 07:21:00,
2013-07-19 03:26:00,78.0,76.0,29.93,NW,315,1.0,1.0,93,0.00,,,0.00,TxWx,2013-07-19 07:26:00,
2013-07-19 03:31:00,78.0,76.0,29.93,WNW,292,1.0,1.0,93,0.00,,,0.00,TxWx,2013-07-19 07:31:00,
2013-07-19 03:36:00,78.0,76.0,29.92,WSW,247,1.0,1.0,93,0.00,,,0.00,TxWx,2013-07-19 07:36:00,
2013-07-19 03:41:00,78.0,76.0,29.92,South,180,0.0,1.0,93,0.00,,,0.00,TxWx,2013-07-19 07:41:00,
2013-07-19 03:46:00,78.0,76.0,29.92,West,270,1.0,1.0,93,0.00,,,0.00,TxWx,2013-07-19 07:46:00,
2013-07-19 03:51:00,78.0,76.0,29.92,West,270,1.0,1.0,93,0.00,,,0.00,TxWx,2013-07-19 07:51:00,
2013-07-19 03:57:00,78.0,76.0,29.92,West,270,1.0,1.0,93,0.00,,,0.00,TxWx,2013-07-19 07:57:00,
2013-07-19 04:02:00,78.0,76.0,29.91,WNW,292,0.0,1.0,93,0.00,,,0.00,TxWx,2013-07-19 08:02:00,
2013-07-19 04:07:00,78.0,76.0,29.91,NW,315,1.0,1.0,93,0.00,,,0.00,TxWx,2013-07-19 08:07:00,
2013-07-19 04:13:00,78.0,76.0,29.91,NW,315,1.0,1.0,94,0.00,,,0.00,TxWx,2013-07-19 08:13:00,
2013-07-19 04:18:00,78.0,76.0,29.91,NNE,22,2.0,2.0,94,0.00,,,0.00,TxWx,2013-07-19 08:18:00,
2013-07-19 04:23:00,78.0,76.0,29.91,NW,315,2.0,2.0,94,0.00,,,0.00,TxWx,2013-07-19 08:23:00,
2013-07-19 04:28:00,78.0,76.0,29.91,NNW,337,1.0,1.0,94,0.00,,,0.00,TxWx,2013-07-19 08:28:00,
2013-07-19 04:34:00,78.0,76.0,29.91,NW,315,1.0,1.0,94,0.00,,,0.00,TxWx,2013-07-19 08:34:00,
2013-07-19 04:39:00,78.0,76.0,29.91,ENE,67,0.0,1.0,94,0.00,,,0.00,TxWx,2013-07-19 08:39:00,
2013-07-19 04:44:00,78.0,76.0,29.90,North,0,1.0,1.0,94,0.00,,,0.00,TxWx,2013-07-19 08:44:00,
2013-07-19 04:49:00,78.0,76.0,29.91,West,270,0.0,1.0,94,0.00,,,0.00,TxWx,2013-07-19 08:49:00,
2013-07-19 04:54:00,78.0,76.0,29.91,NW,315,1.0,1.0,94,0.00,,,0.00,TxWx,2013-07-19 08:54:00,
2013-07-19 04:59:00,78.0,76.0,29.91,North,0,1.0,1.0,94,0.00,,,0.00,TxWx,2013-07-19 08:59:00,
2013-07-19 05:05:00,78.0,76.0,29.90,West,270,1.0,1.0,94,0.00,,,0.00,TxWx,2013-07-19 09:05:00,
2013-07-19 05:10:00,78.0,76.0,29.91,WNW,292,0.0,0.0,94,0.00,,,0.00,TxWx,2013-07-19 09:10:00,
2013-07-19 05:15:00,78.0,76.0,29.90,South,180,1.0,1.0,95,0.00,,,0.00,TxWx,2013-07-19 09:15:00,
2013-07-19 05:20:00,78.0,76.0,29.91,SSE,157,1.0,1.0,95,0.00,,,0.00,TxWx,2013-07-19 09:20:00,
2013-07-19 05:26:00,78.0,76.0,29.91,NW,315,0.0,1.0,95,0.00,,,0.00,TxWx,2013-07-19 09:26:00,
2013-07-19 05:31:00,77.0,75.0,29.91,NW,315,0.0,1.0,95,0.00,,,0.00,TxWx,2013-07-19 09:31:00,
2013-07-19 05:36:00,77.0,75.0,29.91,West,270,1.0,1.0,95,0.00,,,0.00,TxWx,2013-07-19 09:36:00,
2013-07-19 05:42:00,77.0,75.0,29.91,NNE,22,0.0,1.0,95,0.00,,,0.00,TxWx,2013-07-19 09:42:00,
2013-07-19 05:47:00,77.0,75.0,29.90,West,270,1.0,1.0,95,0.00,,,0.00,TxWx,2013-07-19 09:47:00,
2013-07-19 05:52:00,77.0,75.0,29.90,SW,225,1.0,1.0,95,0.00,,,0.00,TxWx,2013-07-19 09:52:00,
2013-07-19 05:57:00,77.0,75.0,29.90,ENE,67,1.0,1.0,95,0.00,,,0.00,TxWx,2013-07-19 09:57:00,
2013-07-19 06:03:00,77.0,75.0,29.90,NNE,22,0.0,1.0,95,0.00,,,0.00,TxWx,2013-07-19 10:03:00,
2013-07-19 06:08:00,77.0,75.0,29.90,NE,45,1.0,1.0,95,0.00,,,0.00,TxWx,2013-07-19 10:08:00,
2013-07-19 06:13:00,77.0,75.0,29.90,North,0,1.0,1.0,95,0.00,,,0.00,TxWx,2013-07-19 10:13:00,
2013-07-19 06:18:00,77.0,75.0,29.90,NNW,337,1.0,1.0,95,0.00,,,0.00,TxWx,2013-07-19 10:18:00,
2013-07-19 06:23:00,77.0,76.0,29.90,NNW,337,2.0,3.0,96,0.00,,,0.00,TxWx,2013-07-19 10:23:00,
2013-07-19 06:28:00,78.0,77.0,29.90,NNW,337,2.0,3.0,96,0.00,,,0.00,TxWx,2013-07-19 10:28:00,
2013-07-19 06:33:00,78.0,77.0,29.90,NW,315,3.0,3.0,96,0.00,,,0.00,TxWx,2013-07-19 10:33:00,
2013-07-19 06:38:00,78.0,77.0,29.90,NNW,337,2.0,2.0,96,0.00,,,0.00,TxWx,2013-07-19 10:38:00,
2013-07-19 06:44:00,79.0,78.0,29.90,NW,315,4.0,4.0,96,0.00,,,0.00,TxWx,2013-07-19 10:44:00,
2013-07-19 06:49:00,79.0,78.0,29.90,NW,315,4.0,6.0,96,0.00,,,0.00,TxWx,2013-07-19 10:49:00,
2013-07-19 06:54:00,79.0,78.0,29.90,NW,315,3.0,3.0,96,0.00,,,0.00,TxWx,2013-07-19 10:54:00,
2013-07-19 06:59:00,80.0,79.0,29.90,NW,315,4.0,5.0,96,0.00,,,0.00,TxWx,2013-07-19 10:59:00,
2013-07-19 07:05:00,80.0,79.0,29.90,NNW,337,3.0,3.0,96,0.00,,,0.00,TxWx,2013-07-19 11:05:00,
2013-07-19 07:10:00,80.0,79.0,29.90,North,0,5.0,6.0,96,0.00,,,0.00,TxWx,2013-07-19 11:10:00,
2013-07-19 07:15:00,80.0,79.0,29.90,NW,315,3.0,5.0,96,0.00,,,0.00,TxWx,2013-07-19 11:15:00,
2013-07-19 07:20:00,81.0,80.0,29.90,NNE,22,2.0,3.0,96,0.00,,,0.00,TxWx,2013-07-19 11:20:00,
2013-07-19 07:25:00,81.0,79.0,29.90,NW,315,3.0,3.0,95,0.00,,,0.00,TxWx,2013-07-19 11:25:00,
2013-07-19 07:30:00,81.0,79.0,29.90,NNW,337,2.0,3.0,95,0.00,,,0.00,TxWx,2013-07-19 11:30:00,
2013-07-19 07:36:00,82.0,80.0,29.90,NW,315,3.0,3.0,95,0.00,,,0.00,TxWx,2013-07-19 11:36:00,
2013-07-19 07:41:00,82.0,80.0,29.90,NW,315,3.0,3.0,94,0.00,,,0.00,TxWx,2013-07-19 11:41:00,
2013-07-19 07:46:00,82.0,80.0,29.90,NNE,22,2.0,4.0,93,0.00,,,0.00,TxWx,2013-07-19 11:46:00,
2013-07-19 07:51:00,83.0,80.0,29.90,NW,315,2.0,3.0,92,0.00,,,0.00,TxWx,2013-07-19 11:51:00,
2013-07-19 07:56:00,83.0,80.0,29.90,NW,315,4.0,5.0,91,0.00,,,0.00,TxWx,2013-07-19 11:56:00,
2013-07-19 08:01:00,83.0,80.0,29.91,NNW,337,3.0,4.0,90,0.00,,,0.00,TxWx,2013-07-19 12:01:00,
2013-07-19 08:06:00,83.0,79.0,29.90,NW,315,3.0,3.0,89,0.00,,,0.00,TxWx,2013-07-19 12:06:00,
2013-07-19 08:12:00,83.0,79.0,29.90,NW,315,3.0,4.0,88,0.00,,,0.00,TxWx,2013-07-19 12:12:00,
2013-07-19 08:17:00,84.0,80.0,29.90,NW,315,3.0,3.0,87,0.00,,,0.00,TxWx,2013-07-19 12:17:00,
2013-07-19 08:22:00,84.0,80.0,29.90,NNW,337,5.0,5.0,87,0.00,,,0.00,TxWx,2013-07-19 12:22:00,
2013-07-19 08:27:00,84.0,79.0,29.90,NNW,337,1.0,1.0,86,0.00,,,0.00,TxWx,2013-07-19 12:27:00,
2013-07-19 08:32:00,84.0,79.0,29.90,ENE,67,1.0,1.0,85,0.00,,,0.00,TxWx,2013-07-19 12:32:00,
2013-07-19 08:38:00,85.0,80.0,29.90,NE,45,4.0,4.0,85,0.00,,,0.00,TxWx,2013-07-19 12:38:00,
2013-07-19 08:43:00,85.0,79.0,29.91,North,0,3.0,3.0,84,0.00,,,0.00,TxWx,2013-07-19 12:43:00,
2013-07-19 08:48:00,86.0,80.0,29.91,SSW,202,1.0,2.0,83,0.00,,,0.00,TxWx,2013-07-19 12:48:00,
2013-07-19 08:54:00,86.0,80.0,29.91,NNW,337,2.0,3.0,82,0.00,,,0.00,TxWx,2013-07-19 12:54:00,
2013-07-19 08:59:00,86.0,79.0,29.91,NNW,337,3.0,3.0,81,0.00,,,0.00,TxWx,2013-07-19 12:59:00,
2013-07-19 09:04:00,86.0,79.0,29.91,NW,315,2.0,3.0,80,0.00,,,0.00,TxWx,2013-07-19 13:04:00,
2013-07-19 09:10:00,87.0,80.0,29.90,North,0,2.0,3.0,79,0.00,,,0.00,TxWx,2013-07-19 13:10:00,
2013-07-19 09:15:00,87.0,79.0,29.90,NW,315,3.0,3.0,79,0.00,,,0.00,TxWx,2013-07-19 13:15:00,
2013-07-19 09:20:00,87.0,79.0,29.90,NW,315,3.0,4.0,78,0.00,,,0.00,TxWx,2013-07-19 13:20:00,
2013-07-19 09:25:00,88.0,80.0,29.90,NE,45,1.0,1.0,78,0.00,,,0.00,TxWx,2013-07-19 13:25:00,
2013-07-19 09:31:00,88.0,80.0,29.90,North,0,1.0,2.0,77,0.00,,,0.00,TxWx,2013-07-19 13:31:00,
2013-07-19 09:36:00,89.0,80.0,29.90,NNE,22,3.0,3.0,76,0.00,,,0.00,TxWx,2013-07-19 13:36:00,
2013-07-19 09:41:00,89.0,80.0,29.90,West,270,1.0,2.0,75,0.00,,,0.00,TxWx,2013-07-19 13:41:00,
2013-07-19 09:46:00,89.0,80.0,29.90,NNE,22,3.0,3.0,74,0.00,,,0.00,TxWx,2013-07-19 13:46:00,
2013-07-19 09:52:00,89.0,79.0,29.89,WNW,292,1.0,1.0,73,0.00,,,0.00,TxWx,2013-07-19 13:52:00,
2013-07-19 09:57:00,90.0,80.0,29.89,NE,45,2.0,2.0,73,0.00,,,0.00,TxWx,2013-07-19 13:57:00,
2013-07-19 10:02:00,91.0,81.0,29.89,SSW,202,2.0,3.0,73,0.00,,,0.00,TxWx,2013-07-19 14:02:00,
2013-07-19 10:07:00,91.0,80.0,29.89,NW,315,4.0,4.0,71,0.00,,,0.00,TxWx,2013-07-19 14:07:00,
2013-07-19 10:12:00,91.0,80.0,29.89,WNW,292,4.0,5.0,70,0.00,,,0.00,TxWx,2013-07-19 14:12:00,
2013-07-19 10:18:00,91.0,80.0,29.88,WNW,292,1.0,2.0,70,0.00,,,0.00,TxWx,2013-07-19 14:18:00,
2013-07-19 10:23:00,92.0,81.0,29.88,South,180,1.0,1.0,70,0.00,,,0.00,TxWx,2013-07-19 14:23:00,
2013-07-19 10:28:00,92.0,80.0,29.88,SSW,202,3.0,3.0,69,0.00,,,0.00,TxWx,2013-07-19 14:28:00,
2013-07-19 10:33:00,92.0,80.0,29.88,West,270,1.0,4.0,69,0.00,,,0.00,TxWx,2013-07-19 14:33:00,
2013-07-19 10:39:00,93.0,81.0,29.88,NNW,337,3.0,5.0,68,0.00,,,0.00,TxWx,2013-07-19 14:39:00,
2013-07-19 10:44:00,93.0,81.0,29.88,ENE,67,3.0,3.0,68,0.00,,,0.00,TxWx,2013-07-19 14:44:00,
2013-07-19 10:49:00,93.0,80.0,29.88,NE,45,2.0,3.0,67,0.00,,,0.00,TxWx,2013-07-19 14:49:00,
2013-07-19 10:54:00,93.0,80.0,29.88,WNW,292,2.0,3.0,66,0.00,,,0.00,TxWx,2013-07-19 14:54:00,
2013-07-19 11:00:00,93.0,80.0,29.87,North,0,3.0,4.0,66,0.00,,,0.00,TxWx,2013-07-19 15:00:00,
2013-07-19 11:05:00,93.0,80.0,29.87,SW,225,1.0,2.0,67,0.00,,,0.00,TxWx,2013-07-19 15:05:00,
2013-07-19 11:10:00,93.0,80.0,29.87,North,0,1.0,3.0,67,0.00,,,0.00,TxWx,2013-07-19 15:10:00,
2013-07-19 11:15:00,94.0,80.0,29.87,WNW,292,4.0,5.0,65,0.00,,,0.00,TxWx,2013-07-19 15:15:00,
2013-07-19 11:20:00,94.0,80.0,29.87,NNW,337,3.0,3.0,65,0.00,,,0.00,TxWx,2013-07-19 15:20:00,
2013-07-19 11:26:00,94.0,79.0,29.86,NW,315,3.0,3.0,63,0.00,,,0.00,TxWx,2013-07-19 15:26:00,
2013-07-19 11:31:00,94.0,79.0,29.86,NW,315,2.0,3.0,63,0.00,,,0.00,TxWx,2013-07-19 15:31:00,
2013-07-19 11:36:00,95.0,81.0,29.86,NNE,22,2.0,3.0,64,0.00,,,0.00,TxWx,2013-07-19 15:36:00,
2013-07-19 11:42:00,95.0,80.0,29.85,NNW,337,5.0,8.0,63,0.00,,,0.00,TxWx,2013-07-19 15:42:00,
2013-07-19 11:47:00,95.0,80.0,29.85,NW,315,1.0,2.0,63,0.00,,,0.00,TxWx,2013-07-19 15:47:00,
2013-07-19 11:52:00,95.0,80.0,29.85,North,0,2.0,4.0,63,0.00,,,0.00,TxWx,2013-07-19 15:52:00,
2013-07-19 11:57:00,95.0,80.0,29.84,North,0,4.0,5.0,62,0.00,,,0.00,TxWx,2013-07-19 15:57:00,
2013-07-19 12:03:00,95.0,80.0,29.84,NW,315,5.0,5.0,62,0.00,,,0.00,TxWx,2013-07-19 16:03:00,
2013-07-19 12:08:00,95.0,79.0,29.84,WNW,292,5.0,5.0,61,0.00,,,0.00,TxWx,2013-07-19 16:08:00,
2013-07-19 12:13:00,95.0,79.0,29.83,SW,225,6.0,6.0,61,0.00,,,0.00,TxWx,2013-07-19 16:13:00,
2013-07-19 12:19:00,96.0,81.0,29.83,NW,315,5.0,5.0,62,0.00,,,0.00,TxWx,2013-07-19 16:19:00,
2013-07-19 12:24:00,96.0,81.0,29.83,WSW,247,3.0,4.0,62,0.00,,,0.00,TxWx,2013-07-19 16:24:00,
2013-07-19 12:29:00,96.0,80.0,29.83,West,270,3.0,3.0,61,0.00,,,0.00,TxWx,2013-07-19 16:29:00,
2013-07-19 12:34:00,96.0,81.0,29.82,NNW,337,5.0,6.0,62,0.00,,,0.00,TxWx,2013-07-19 16:34:00,
2013-07-19 12:40:00,96.0,81.0,29.82,West,270,8.0,8.0,62,0.00,,,0.00,TxWx,2013-07-19 16:40:00,
2013-07-19 12:45:00,96.0,81.0,29.82,NE,45,3.0,4.0,63,0.00,,,0.00,TxWx,2013-07-19 16:45:00,
2013-07-19 12:50:00,96.0,81.0,29.81,NNW,337,5.0,6.0,62,0.00,,,0.00,TxWx,2013-07-19 16:50:00,
2013-07-19 12:56:00,97.0,82.0,29.81,ENE,67,3.0,5.0,62,0.00,,,0.00,TxWx,2013-07-19 16:56:00,
2013-07-19 13:01:00,97.0,82.0,29.81,North,0,6.0,6.0,62,0.00,,,0.00,TxWx,2013-07-19 17:01:00,
2013-07-19 13:06:00,97.0,81.0,29.81,NW,315,4.0,5.0,62,0.00,,,0.00,TxWx,2013-07-19 17:06:00,
2013-07-19 13:12:00,97.0,81.0,29.81,NNW,337,6.0,10.0,61,0.00,,,0.00,TxWx,2013-07-19 17:12:00,
2013-07-19 13:17:00,97.0,81.0,29.80,NW,315,5.0,5.0,61,0.00,,,0.00,TxWx,2013-07-19 17:17:00,
2013-07-19 13:22:00,97.0,81.0,29.80,West,270,5.0,6.0,61,0.00,,,0.00,TxWx,2013-07-19 17:22:00,
2013-07-19 13:28:00,97.0,81.0,29.80,WNW,292,4.0,4.0,61,0.00,,,0.00,TxWx,2013-07-19 17:28:00,
2013-07-19 13:33:00,98.0,82.0,29.79,North,0,3.0,3.0,61,0.00,,,0.00,TxWx,2013-07-19 17:33:00,
2013-07-19 13:38:00,98.0,82.0,29.79,WNW,292,4.0,8.0,60,0.00,,,0.00,TxWx,2013-07-19 17:38:00,
2013-07-19 13:43:00,97.0,80.0,29.79,North,0,6.0,7.0,60,0.00,,,0.00,TxWx,2013-07-19 17:43:00,
2013-07-19 13:48:00,97.0,80.0,29.79,NW,315,5.0,6.0,60,0.00,,,0.00,TxWx,2013-07-19 17:48:00,
2013-07-19 13:53:00,97.0,80.0,29.79,NNW,337,5.0,8.0,59,0.00,,,0.00,TxWx,2013-07-19 17:53:00,
2013-07-19 13:59:00,97.0,80.0,29.78,WNW,292,5.0,5.0,59,0.00,,,0.00,TxWx,2013-07-19 17:59:00,
2013-07-19 14:04:00,98.0,81.0,29.78,NNW,337,3.0,6.0,58,0.00,,,0.00,TxWx,2013-07-19 18:04:00,
2013-07-19 14:09:00,98.0,81.0,29.78,WNW,292,3.0,4.0,58,0.00,,,0.00,TxWx,2013-07-19 18:09:00,
2013-07-19 14:14:00,98.0,81.0,29.78,NW,315,5.0,5.0,58,0.00,,,0.00,TxWx,2013-07-19 18:14:00,
2013-07-19 14:20:00,99.0,81.0,29.77,NW,315,3.0,3.0,58,0.00,,,0.00,TxWx,2013-07-19 18:20:00,
2013-07-19 14:25:00,99.0,80.0,29.78,NW,315,9.0,9.0,55,0.00,,,0.00,TxWx,2013-07-19 18:25:00,
2013-07-19 14:30:00,98.0,78.0,29.77,WNW,292,6.0,10.0,54,0.00,,,0.00,TxWx,2013-07-19 18:30:00,
2013-07-19 14:35:00,99.0,80.0,29.77,NE,45,7.0,8.0,55,0.00,,,0.00,TxWx,2013-07-19 18:35:00,
2013-07-19 14:40:00,99.0,79.0,29.77,NW,315,3.0,5.0,54,0.00,,,0.00,TxWx,2013-07-19 18:40:00,
2013-07-19 14:45:00,99.0,79.0,29.76,West,270,6.0,9.0,53,0.00,,,0.00,TxWx,2013-07-19 18:45:00,
2013-07-19 14:50:00,99.0,78.0,29.76,North,0,6.0,6.0,52,0.00,,,0.00,TxWx,2013-07-19 18:50:00,
2013-07-19 14:55:00,99.0,78.0,29.76,NE,45,3.0,3.0,51,0.00,,,0.00,TxWx,2013-07-19 18:55:00,
2013-07-19 15:00:00,99.0,78.0,29.76,NW,315,7.0,13.0,52,0.00,,,0.00,TxWx,2013-07-19 19:00:00,
2013-07-19 15:01:00,86.0,77.0,29.77,South,180,5.0,9.0,75,0.00,,,0.00,TxWx,2013-07-19 19:01:00,
2013-07-19 15:02:00,86.0,77.0,29.77,ESE,112,7.0,8.0,75,0.00,,,0.00,TxWx,2013-07-19 19:02:00,
2013-07-19 15:03:00,87.0,77.0,29.77,ESE,112,7.0,10.0,74,0.00,,,0.00,TxWx,2013-07-19 19:03:00,
2013-07-19 15:04:00,87.0,77.0,29.76,SW,225,6.0,6.0,74,0.00,,,0.00,TxWx,2013-07-19 19:04:00,
2013-07-19 15:05:00,87.0,77.0,29.76,SE,135,5.0,6.0,73,0.00,,,0.00,TxWx,2013-07-19 19:05:00,
2013-07-19 15:06:00,99.0,78.0,29.75,West,270,5.0,6.0,51,0.00,,,0.00,TxWx,2013-07-19 19:06:00,
2013-07-19 15:07:00,87.0,77.0,29.76,South,180,10.0,10.0,73,0.00,,,0.00,TxWx,2013-07-19 19:07:00,
2013-07-19 15:08:00,87.0,77.0,29.76,SSE,157,4.0,6.0,72,0.00,,,0.00,TxWx,2013-07-19 19:08:00,
2013-07-19 15:09:00,88.0,77.0,29.76,East,90,5.0,6.0,71,0.00,,,0.00,TxWx,2013-07-19 19:09:00,
2013-07-19 15:10:00,88.0,77.0,29.76,East,90,4.0,5.0,71,0.00,,,0.00,TxWx,2013-07-19 19:10:00,
2013-07-19 15:11:00,99.0,78.0,29.75,West,270,5.0,8.0,52,0.00,,,0.00,TxWx,2013-07-19 19:11:00,
2013-07-19 15:12:00,88.0,77.0,29.76,ESE,112,2.0,3.0,70,0.00,,,0.00,TxWx,2013-07-19 19:12:00,
2013-07-19 15:13:00,88.0,77.0,29.76,SE,135,2.0,3.0,69,0.00,,,0.00,TxWx,2013-07-19 19:13:00,
2013-07-19 15:14:00,88.0,76.0,29.76,East,90,3.0,4.0,69,0.00,,,0.00,TxWx,2013-07-19 19:14:00,
2013-07-19 15:15:00,89.0,77.0,29.76,ESE,112,3.0,3.0,68,0.00,,,0.00,TxWx,2013-07-19 19:15:00,
2013-07-19 15:16:00,99.0,78.0,29.75,WNW,292,3.0,3.0,52,0.00,,,0.00,TxWx,2013-07-19 19:16:00,
2013-07-19 15:17:00,89.0,77.0,29.76,NE,45,2.0,3.0,67,0.00,,,0.00,TxWx,2013-07-19 19:17:00,
2013-07-19 15:18:00,89.0,77.0,29.76,NNE,22,1.0,2.0,67,0.00,,,0.00,TxWx,2013-07-19 19:18:00,
2013-07-19 15:19:00,89.0,77.0,29.76,NE,45,0.0,1.0,68,0.00,,,0.00,TxWx,2013-07-19 19:19:00,
2013-07-19 15:20:00,89.0,77.0,29.76,ESE,112,3.0,3.0,68,0.00,,,0.00,TxWx,2013-07-19 19:20:00,
2013-07-19 15:21:00,99.0,78.0,29.75,NW,315,4.0,4.0,52,0.00,,,0.00,TxWx,2013-07-19 19:21:00,
2013-07-19 15:22:00,89.0,77.0,29.76,East,90,2.0,3.0,68,0.00,,,0.00,TxWx,2013-07-19 19:22:00,
2013-07-19 15:23:00,89.0,77.0,29.77,East,90,2.0,3.0,68,0.00,,,0.00,TxWx,2013-07-19 19:23:00,
2013-07-19 15:24:00,89.0,77.0,29.77,East,90,3.0,3.0,68,0.00,,,0.00,TxWx,2013-07-19 19:24:00,
2013-07-19 15:25:00,88.0,76.0,29.77,East,90,3.0,3.0,68,0.00,,,0.00,TxWx,2013-07-19 19:25:00,
2013-07-19 15:26:00,88.0,76.0,29.77,East,90,2.0,3.0,68,0.00,,,0.00,TxWx,2013-07-19 19:26:00,
2013-07-19 15:27:00,100.0,79.0,29.75,NE,45,6.0,6.0,52,0.00,,,0.00,TxWx,2013-07-19 19:27:00,
2013-07-19 15:28:00,88.0,76.0,29.77,SE,135,3.0,4.0,68,0.00,,,0.00,TxWx,2013-07-19 19:28:00,
2013-07-19 15:29:00,88.0,76.0,29.77,SE,135,5.0,5.0,68,0.00,,,0.00,TxWx,2013-07-19 19:29:00,
2013-07-19 15:30:00,88.0,76.0,29.77,SE,135,3.0,3.0,68,0.00,,,0.00,TxWx,2013-07-19 19:30:00,
2013-07-19 15:31:00,88.0,76.0,29.77,SE,135,5.0,6.0,68,0.00,,,0.00,TxWx,2013-07-19 19:31:00,
2013-07-19 15:32:00,99.0,77.0,29.74,NW,315,6.0,10.0,51,0.00,,,0.00,TxWx,2013-07-19 19:32:00,
2013-07-19 15:33:00,88.0,76.0,29.77,South,180,4.0,4.0,67,0.00,,,0.00,TxWx,2013-07-19 19:33:00,
2013-07-19 15:34:00,88.0,75.0,29.77,SSE,157,5.0,7.0,67,0.00,,,0.00,TxWx,2013-07-19 19:34:00,
2013-07-19 15:35:00,88.0,75.0,29.77,SE,135,5.0,8.0,66,0.00,,,0.00,TxWx,2013-07-19 19:35:00,
2013-07-19 15:36:00,88.0,75.0,29.77,South,180,5.0,6.0,65,0.00,,,0.00,TxWx,2013-07-19 19:36:00,
2013-07-19 15:37:00,99.0,78.0,29.74,North,0,2.0,4.0,52,0.00,,,0.00,TxWx,2013-07-19 19:37:00,
2013-07-19 15:38:00,88.0,74.0,29.77,SE,135,5.0,5.0,64,0.00,,,0.00,TxWx,2013-07-19 19:38:00,
2013-07-19 15:39:00,88.0,74.0,29.77,ESE,112,7.0,7.0,64,0.00,,,0.00,TxWx,2013-07-19 19:39:00,
2013-07-19 15:40:00,88.0,74.0,29.77,SSW,202,4.0,4.0,64,0.00,,,0.00,TxWx,2013-07-19 19:40:00,
2013-07-19 15:41:00,88.0,74.0,29.77,South,180,3.0,3.0,64,0.00,,,0.00,TxWx,2013-07-19 19:41:00,
2013-07-19 15:42:00,99.0,77.0,29.74,NNE,22,7.0,7.0,50,0.00,,,0.00,TxWx,2013-07-19 19:42:00,
2013-07-19 15:43:00,88.0,74.0,29.77,SSE,157,5.0,6.0,64,0.00,,,0.00,TxWx,2013-07-19 19:43:00,
2013-07-19 15:44:00,88.0,74.0,29.77,SSE,157,4.0,5.0,63,0.00,,,0.00,TxWx,2013-07-19 19:44:00,
2013-07-19 15:46:00,88.0,74.0,29.76,SSW,202,3.0,3.0,63,0.00,,,0.00,TxWx,2013-07-19 19:46:00,
2013-07-19 15:47:00,88.0,74.0,29.76,SSW,202,3.0,4.0,63,0.00,,,0.00,TxWx,2013-07-19 19:47:00,
2013-07-19 15:48:00,99.0,78.0,29.74,NNW,337,5.0,6.0,51,0.00,,,0.00,TxWx,2013-07-19 19:48:00,
2013-07-19 15:49:00,88.0,74.0,29.76,SSE,157,3.0,4.0,64,0.00,,,0.00,TxWx,2013-07-19 19:49:00,
2013-07-19 15:50:00,88.0,74.0,29.76,SE,135,3.0,3.0,64,0.00,,,0.00,TxWx,2013-07-19 19:50:00,
2013-07-19 15:51:00,88.0,74.0,29.76,South,180,2.0,3.0,64,0.00,,,0.00,TxWx,2013-07-19 19:51:00,
2013-07-19 15:52:00,87.0,74.0,29.76,SSW,202,4.0,4.0,65,0.00,,,0.00,TxWx,2013-07-19 19:52:00,
2013-07-19 15:53:00,99.0,77.0,29.74,NW,315,3.0,4.0,50,0.00,,,0.00,TxWx,2013-07-19 19:53:00,
2013-07-19 15:54:00,87.0,74.0,29.76,WSW,247,2.0,3.0,65,0.00,,,0.00,TxWx,2013-07-19 19:54:00,
2013-07-19 15:57:00,87.0,74.0,29.76,SSE,157,2.0,2.0,65,0.00,,,0.00,TxWx,2013-07-19 19:57:00,
2013-07-19 15:58:00,99.0,76.0,29.73,North,0,5.0,7.0,49,0.00,,,0.00,TxWx,2013-07-19 19:58:00,
2013-07-19 15:59:00,87.0,74.0,29.77,SSE,157,1.0,2.0,66,0.00,,,0.00,TxWx,2013-07-19 19:59:00,
2013-07-19 16:02:00,87.0,74.0,29.77,NE,45,2.0,3.0,66,0.00,,,0.00,TxWx,2013-07-19 20:02:00,
2013-07-19 16:03:00,99.0,77.0,29.73,WNW,292,5.0,6.0,50,0.00,,,0.00,TxWx,2013-07-19 20:03:00,
2013-07-19 16:09:00,99.0,77.0,29.73,NNE,22,8.0,8.0,50,0.00,,,0.00,TxWx,2013-07-19 20:09:00,
2013-07-19 16:10:00,99.0,77.0,29.73,NNW,337,8.0,11.0,50,0.00,,,0.00,TxWx,2013-07-19 20:10:00,
2013-07-19 16:15:00,99.0,77.0,29.73,NNE,22,5.0,9.0,50,0.00,,,0.00,TxWx,2013-07-19 20:15:00,
2013-07-19 16:21:00,99.0,77.0,29.73,NW,315,5.0,6.0,51,0.00,,,0.00,TxWx,2013-07-19 20:21:00,
2013-07-19 16:26:00,99.0,78.0,29.72,WNW,292,5.0,5.0,52,0.00,,,0.00,TxWx,2013-07-19 20:26:00,
2013-07-19 16:31:00,99.0,79.0,29.72,North,0,4.0,6.0,53,0.00,,,0.00,TxWx,2013-07-19 20:31:00,
2013-07-19 16:36:00,99.0,79.0,29.72,WNW,292,4.0,4.0,54,0.00,,,0.00,TxWx,2013-07-19 20:36:00,
2013-07-19 16:41:00,99.0,79.0,29.72,NW,315,5.0,5.0,53,0.00,,,0.00,TxWx,2013-07-19 20:41:00,
2013-07-19 16:47:00,98.0,78.0,29.72,NW,315,5.0,5.0,53,0.00,,,0.00,TxWx,2013-07-19 20:47:00,
2013-07-19 16:52:00,98.0,78.0,29.72,North,0,3.0,4.0,54,0.00,,,0.00,TxWx,2013-07-19 20:52:00,
2013-07-19 16:57:00,98.0,78.0,29.72,North,0,7.0,7.0,53,0.00,,,0.00,TxWx,2013-07-19 20:57:00,
2013-07-19 17:03:00,98.0,78.0,29.72,NNW,337,6.0,6.0,53,0.00,,,0.00,TxWx,2013-07-19 21:03:00,
2013-07-19 17:08:00,98.0,78.0,29.71,WNW,292,14.0,14.0,53,0.00,,,0.00,TxWx,2013-07-19 21:08:00,
2013-07-19 17:13:00,98.0,77.0,29.71,NNW,337,5.0,7.0,52,0.00,,,0.00,TxWx,2013-07-19 21:13:00,
2013-07-19 17:18:00,98.0,78.0,29.71,NW,315,5.0,5.0,53,0.00,,,0.00,TxWx,2013-07-19 21:18:00,
2013-07-19 17:23:00,98.0,78.0,29.71,WNW,292,3.0,3.0,53,0.00,,,0.00,TxWx,2013-07-19 21:23:00,
2013-07-19 17:28:00,98.0,78.0,29.71,NNW,337,5.0,6.0,54,0.00,,,0.00,TxWx,2013-07-19 21:28:00,
2013-07-19 17:34:00,98.0,78.0,29.71,North,0,4.0,5.0,54,0.00,,,0.00,TxWx,2013-07-19 21:34:00,
2013-07-19 17:39:00,98.0,78.0,29.71,North,0,5.0,5.0,54,0.00,,,0.00,TxWx,2013-07-19 21:39:00,
2013-07-19 17:44:00,98.0,78.0,29.71,WNW,292,3.0,3.0,54,0.00,,,0.00,TxWx,2013-07-19 21:44:00,
2013-07-19 17:49:00,98.0,78.0,29.71,WNW,292,3.0,5.0,54,0.00,,,0.00,TxWx,2013-07-19 21:49:00,
2013-07-19 17:55:00,98.0,78.0,29.71,East,90,2.0,3.0,54,0.00,,,0.00,TxWx,2013-07-19 21:55:00,
2013-07-19 18:00:00,98.0,78.0,29.71,NNW,337,4.0,5.0,54,0.00,,,0.00,TxWx,2013-07-19 22:00:00,
2013-07-19 18:05:00,97.0,77.0,29.71,WNW,292,4.0,5.0,54,0.00,,,0.00,TxWx,2013-07-19 22:05:00,
2013-07-19 18:11:00,97.0,77.0,29.71,NNE,22,2.0,3.0,54,0.00,,,0.00,TxWx,2013-07-19 22:11:00,
2013-07-19 18:16:00,97.0,78.0,29.71,WNW,292,3.0,3.0,54,0.00,,,0.00,TxWx,2013-07-19 22:16:00,
2013-07-19 18:21:00,97.0,77.0,29.72,NW,315,6.0,7.0,54,0.00,,,0.00,TxWx,2013-07-19 22:21:00,
2013-07-19 18:26:00,97.0,78.0,29.71,NNW,337,2.0,2.0,54,0.00,,,0.00,TxWx,2013-07-19 22:26:00,
2013-07-19 18:32:00,97.0,78.0,29.72,NW,315,5.0,6.0,55,0.00,,,0.00,TxWx,2013-07-19 22:32:00,
2013-07-19 18:37:00,96.0,77.0,29.72,WNW,292,2.0,3.0,55,0.00,,,0.00,TxWx,2013-07-19 22:37:00,
2013-07-19 18:42:00,96.0,77.0,29.72,NNW,337,2.0,3.0,56,0.00,,,0.00,TxWx,2013-07-19 22:42:00,
2013-07-19 18:47:00,96.0,77.0,29.73,WNW,292,3.0,3.0,55,0.00,,,0.00,TxWx,2013-07-19 22:47:00,
2013-07-19 18:53:00,96.0,77.0,29.73,NW,315,2.0,2.0,55,0.00,,,0.00,TxWx,2013-07-19 22:53:00,
2013-07-19 18:58:00,96.0,77.0,29.73,WNW,292,5.0,5.0,56,0.00,,,0.00,TxWx,2013-07-19 22:58:00,
2013-07-19 19:03:00,95.0,76.0,29.73,WNW,292,3.0,4.0,56,0.00,,,0.00,TxWx,2013-07-19 23:03:00,
2013-07-19 19:08:00,95.0,77.0,29.73,NW,315,3.0,3.0,56,0.00,,,0.00,TxWx,2013-07-19 23:08:00,
2013-07-19 19:14:00,95.0,77.0,29.73,NW,315,1.0,2.0,56,0.00,,,0.00,TxWx,2013-07-19 23:14:00,
2013-07-19 19:19:00,95.0,77.0,29.73,NW,315,3.0,4.0,57,0.00,,,0.00,TxWx,2013-07-19 23:19:00,
2013-07-19 19:25:00,94.0,76.0,29.73,WNW,292,1.0,2.0,57,0.00,,,0.00,TxWx,2013-07-19 23:25:00,
2013-07-19 19:30:00,94.0,76.0,29.73,NW,315,3.0,3.0,57,0.00,,,0.00,TxWx,2013-07-19 23:30:00,
2013-07-19 19:35:00,94.0,77.0,29.73,NW,315,2.0,2.0,58,0.00,,,0.00,TxWx,2013-07-19 23:35:00,
2013-07-19 19:40:00,93.0,76.0,29.73,NW,315,3.0,3.0,58,0.00,,,0.00,TxWx,2013-07-19 23:40:00,
2013-07-19 19:46:00,93.0,76.0,29.73,NNW,337,3.0,5.0,58,0.00,,,0.00,TxWx,2013-07-19 23:46:00,
2013-07-19 19:51:00,93.0,76.0,29.73,NW,315,1.0,3.0,58,0.00,,,0.00,TxWx,2013-07-19 23:51:00,
2013-07-19 19:56:00,93.0,76.0,29.74,West,270,2.0,3.0,58,0.00,,,0.00,TxWx,2013-07-19 23:56:00,
2013-07-19 20:01:00,93.0,76.0,29.74,WNW,292,5.0,6.0,59,0.00,,,0.00,TxWx,2013-07-20 00:01:00,
2013-07-19 20:07:00,92.0,76.0,29.73,NW,315,2.0,3.0,59,0.00,,,0.00,TxWx,2013-07-20 00:07:00,
2013-07-19 20:12:00,92.0,76.0,29.74,North,0,3.0,3.0,59,0.00,,,0.00,TxWx,2013-07-20 00:12:00,
2013-07-19 20:17:00,92.0,76.0,29.74,WSW,247,2.0,3.0,60,0.00,,,0.00,TxWx,2013-07-20 00:17:00,
2013-07-19 20:23:00,92.0,76.0,29.74,WNW,292,2.0,3.0,60,0.00,,,0.00,TxWx,2013-07-20 00:23:00,
2013-07-19 20:28:00,91.0,75.0,29.75,NW,315,2.0,3.0,61,0.00,,,0.00,TxWx,2013-07-20 00:28:00,
2013-07-19 20:33:00,91.0,75.0,29.75,WNW,292,1.0,2.0,61,0.00,,,0.00,TxWx,2013-07-20 00:33:00,
2013-07-19 20:39:00,91.0,76.0,29.75,NW,315,1.0,1.0,61,0.00,,,0.00,TxWx,2013-07-20 00:39:00,
2013-07-19 20:44:00,91.0,76.0,29.75,WNW,292,3.0,3.0,62,0.00,,,0.00,TxWx,2013-07-20 00:44:00,
2013-07-19 20:49:00,91.0,76.0,29.75,NNW,337,1.0,2.0,62,0.00,,,0.00,TxWx,2013-07-20 00:49:00,
2013-07-19 20:55:00,90.0,75.0,29.75,WSW,247,1.0,2.0,63,0.00,,,0.00,TxWx,2013-07-20 00:55:00,
2013-07-19 21:00:00,91.0,76.0,29.75,WNW,292,3.0,5.0,63,0.00,,,0.00,TxWx,2013-07-20 01:00:00,
2013-07-19 21:05:00,90.0,75.0,29.75,WNW,292,1.0,1.0,63,0.00,,,0.00,TxWx,2013-07-20 01:05:00,
2013-07-19 21:11:00,90.0,76.0,29.75,NNE,22,1.0,1.0,63,0.00,,,0.00,TxWx,2013-07-20 01:11:00,
2013-07-19 21:12:00,90.0,76.0,29.75,NW,315,1.0,1.0,63,0.00,,,0.00,TxWx,2013-07-20 01:12:00,
2013-07-19 21:17:00,90.0,76.0,29.75,WNW,292,3.0,6.0,64,0.00,,,0.00,TxWx,2013-07-20 01:17:00,
2013-07-19 21:22:00,90.0,76.0,29.75,WNW,292,1.0,1.0,64,0.00,,,0.00,TxWx,2013-07-20 01:22:00,
2013-07-19 21:27:00,90.0,76.0,29.76,North,0,1.0,1.0,64,0.00,,,0.00,TxWx,2013-07-20 01:27:00,
2013-07-19 21:33:00,90.0,76.0,29.76,NW,315,1.0,3.0,64,0.00,,,0.00,TxWx,2013-07-20 01:33:00,
2013-07-19 21:38:00,90.0,76.0,29.76,NW,315,3.0,3.0,64,0.00,,,0.00,TxWx,2013-07-20 01:38:00,
2013-07-19 21:43:00,89.0,75.0,29.76,WNW,292,3.0,3.0,65,0.00,,,0.00,TxWx,2013-07-20 01:43:00,
2013-07-19 21:49:00,89.0,76.0,29.76,WNW,292,1.0,2.0,65,0.00,,,0.00,TxWx,2013-07-20 01:49:00,
2013-07-19 21:54:00,89.0,76.0,29.76,WSW,247,2.0,2.0,66,0.00,,,0.00,TxWx,2013-07-20 01:54:00,
2013-07-19 21:59:00,89.0,76.0,29.76,NNE,22,3.0,3.0,66,0.00,,,0.00,TxWx,2013-07-20 01:59:00,
2013-07-19 22:04:00,89.0,76.0,29.77,NW,315,2.0,2.0,67,0.00,,,0.00,TxWx,2013-07-20 02:04:00,
2013-07-19 22:10:00,89.0,76.0,29.77,West,270,1.0,2.0,67,0.00,,,0.00,TxWx,2013-07-20 02:10:00,
2013-07-19 22:15:00,88.0,76.0,29.77,West,270,3.0,3.0,67,0.00,,,0.00,TxWx,2013-07-20 02:15:00,
2013-07-19 22:20:00,88.0,76.0,29.77,ENE,67,1.0,1.0,68,0.00,,,0.00,TxWx,2013-07-20 02:20:00,
2013-07-19 22:25:00,88.0,76.0,29.76,NE,45,2.0,2.0,68,0.00,,,0.00,TxWx,2013-07-20 02:25:00,
2013-07-19 22:31:00,88.0,76.0,29.76,WSW,247,1.0,1.0,68,0.00,,,0.00,TxWx,2013-07-20 02:31:00,
2013-07-19 22:36:00,88.0,76.0,29.76,West,270,2.0,3.0,69,0.00,,,0.00,TxWx,2013-07-20 02:36:00,
2013-07-19 22:42:00,87.0,76.0,29.76,NW,315,1.0,1.0,69,0.00,,,0.00,TxWx,2013-07-20 02:42:00,
2013-07-19 22:47:00,87.0,76.0,29.76,ENE,67,1.0,2.0,70,0.00,,,0.00,TxWx,2013-07-20 02:47:00,
2013-07-19 22:52:00,87.0,76.0,29.76,NW,315,1.0,1.0,71,0.00,,,0.00,TxWx,2013-07-20 02:52:00,
2013-07-19 22:57:00,87.0,76.0,29.75,NW,315,1.0,2.0,71,0.00,,,0.00,TxWx,2013-07-20 02:57:00,
2013-07-19 23:02:00,87.0,77.0,29.76,West,270,1.0,1.0,72,0.00,,,0.00,TxWx,2013-07-20 03:02:00,
2013-07-19 23:07:00,86.0,76.0,29.75,WNW,292,1.0,1.0,72,0.00,,,0.00,TxWx,2013-07-20 03:07:00,
2013-07-19 23:13:00,86.0,76.0,29.75,NNW,337,1.0,1.0,73,0.00,,,0.00,TxWx,2013-07-20 03:13:00,
2013-07-19 23:18:00,86.0,76.0,29.75,NNW,337,1.0,1.0,73,0.00,,,0.00,TxWx,2013-07-20 03:18:00,
2013-07-19 23:23:00,86.0,76.0,29.75,North,0,1.0,1.0,74,0.00,,,0.00,TxWx,2013-07-20 03:23:00,
2013-07-19 23:28:00,86.0,77.0,29.75,NW,315,2.0,3.0,74,0.00,,,0.00,TxWx,2013-07-20 03:28:00,
2013-07-19 23:33:00,86.0,77.0,29.75,NE,45,1.0,1.0,75,0.00,,,0.00,TxWx,2013-07-20 03:33:00,
2013-07-19 23:38:00,85.0,76.0,29.75,NW,315,1.0,2.0,75,0.00,,,0.00,TxWx,2013-07-20 03:38:00,
2013-07-19 23:44:00,85.0,76.0,29.75,NNW,337,2.0,3.0,75,0.00,,,0.00,TxWx,2013-07-20 03:44:00,
2013-07-19 23:49:00,86.0,77.0,29.75,NNW,337,3.0,3.0,76,0.00,,,0.00,TxWx,2013-07-20 03:49:00,
2013-07-19 23:54:00,86.0,77.0,29.75,NW,315,1.0,2.0,76,0.00,,,0.00,TxWx,2013-07-20 03:54:00,
2013-07-19 23:59:00,86.0,77.0,29.77,ESE,112,9.0,10.0,75,0.00,,,0.00,TxWx,2013-07-20 03:59:00,